Time;durP1;ratioP1;P1;durP2;ratioP2;P2;SDS_P1;SDS_P2;PMS_P1;PMS_P2;Temp;Humidity;BMP_temperature;BMP_pressure;BME280_temperature;BME280_humidity;BME280_pressure;Samples;Min_cycle;Max_cycle;Signal;HPM_P1;HPM_P2
2023/03/20 00:01:44;;;;;;;70.90;37.90;;;;;;;5.17;59.17;100109.10;131247;1254;107698;-79
2023/03/20 00:04:50;;;;;;;66.80;37.50;;;;;;;5.16;59.27;100108.60;131327;1248;107403;-79
2023/03/20 00:07:57;;;;;;;69.30;37.20;;;;;;;5.15;59.37;100106.39;131169;1254;107461;-79
2023/03/20 00:11:03;;;;;;;66.80;36.80;;;;;;;5.13;59.24;100102.36;131339;1261;108373;-79
2023/03/20 00:14:12;;;;;;;66.50;37.00;;;;;;;5.09;59.38;100105.77;131120;1254;107392;-79
2023/03/20 00:17:21;;;;;;;60.40;34.80;;;;;;;5.08;59.48;100103.56;131307;1255;106408;-79
2023/03/20 00:20:27;;;;;;;61.20;33.90;;;;;;;5.07;59.69;100095.03;131186;1254;106419;-78
2023/03/20 00:23:33;;;;;;;61.10;34.40;;;;;;;5.06;59.60;100096.18;131277;1261;107432;-80
2023/03/20 00:26:39;;;;;;;64.40;34.80;;;;;;;5.05;59.73;100095.90;131342;1257;106309;-77
2023/03/20 00:29:46;;;;;;;56.20;31.90;;;;;;;5.03;60.05;100093.60;131151;1251;108479;-78
2023/03/20 00:32:52;;;;;;;59.70;32.80;;;;;;;5.01;59.88;100089.67;131379;1253;108795;-77
2023/03/20 00:35:58;;;;;;;55.90;31.30;;;;;;;4.97;59.93;100090.85;131353;1254;106655;-78
2023/03/20 00:39:05;;;;;;;55.50;31.90;;;;;;;4.94;60.02;100092.71;131213;1251;108550;-79
2023/03/20 00:42:18;;;;;;;55.90;32.80;;;;;;;4.94;60.05;100089.34;131257;1255;107427;-79
2023/03/20 00:45:24;;;;;;;59.00;33.00;;;;;;;4.92;60.16;100088.61;131039;1263;107525;-79
2023/03/20 00:48:31;;;;;;;56.60;31.70;;;;;;;4.90;60.21;100089.15;131060;1261;107379;-78
2023/03/20 00:51:36;;;;;;;54.50;31.70;;;;;;;4.88;60.36;100089.99;131102;1254;107364;-78
2023/03/20 00:54:42;;;;;;;52.40;31.60;;;;;;;4.86;60.15;100088.24;131063;1260;107404;-79
2023/03/20 00:57:52;;;;;;;56.50;31.90;;;;;;;4.84;60.45;100085.05;131213;1253;107504;-79
2023/03/20 01:00:58;;;;;;;50.90;30.40;;;;;;;4.82;60.29;100081.46;131332;1255;107470;-77
2023/03/20 01:04:09;;;;;;;52.20;31.10;;;;;;;4.79;60.37;100082.92;131318;1262;107512;-78
2023/03/20 01:07:17;;;;;;;59.40;33.20;;;;;;;4.75;60.31;100083.63;131268;1257;107358;-80
2023/03/20 01:10:26;;;;;;;55.00;33.20;;;;;;;4.73;60.51;100082.17;131450;1254;107512;-77
2023/03/20 01:13:33;;;;;;;57.40;32.40;;;;;;;4.72;60.67;100078.23;131377;1254;107616;-79
2023/03/20 01:16:38;;;;;;;52.60;29.60;;;;;;;4.70;60.60;100080.23;131475;1254;107362;-78
2023/03/20 01:19:44;;;;;;;55.10;30.10;;;;;;;4.70;60.75;100075.90;131152;1251;107289;-79
2023/03/20 01:22:49;;;;;;;53.80;28.60;;;;;;;4.70;60.72;100075.17;131270;1261;105858;-79
2023/03/20 01:25:55;;;;;;;48.00;27.30;;;;;;;4.75;60.70;100074.14;131248;1254;107200;-79
2023/03/20 01:29:01;;;;;;;53.90;29.60;;;;;;;4.79;60.83;100071.02;131346;1254;107502;-79
2023/03/20 01:32:11;;;;;;;53.10;30.50;;;;;;;4.82;61.06;100071.24;131337;1261;107407;-77
2023/03/20 01:35:20;;;;;;;53.20;30.20;;;;;;;4.83;60.77;100070.45;131295;1254;107387;-77
2023/03/20 01:38:27;;;;;;;56.00;31.60;;;;;;;4.83;60.74;100071.52;131220;1257;107431;-77
2023/03/20 01:41:34;;;;;;;51.00;30.10;;;;;;;4.84;60.70;100074.77;131326;1251;107354;-77
2023/03/20 01:44:40;;;;;;;54.80;29.80;;;;;;;4.85;60.80;100073.81;131104;1255;107524;-79
2023/03/20 01:47:46;;;;;;;56.20;30.30;;;;;;;4.85;60.83;100074.73;131060;1251;107280;-79
2023/03/20 01:50:52;;;;;;;54.60;30.50;;;;;;;4.83;60.90;100080.52;131054;1258;107560;-79
2023/03/20 01:54:01;;;;;;;57.00;32.10;;;;;;;4.81;60.97;100079.63;131295;1254;107256;-79
2023/03/20 01:57:12;;;;;;;57.30;32.40;;;;;;;4.73;61.05;100079.54;131068;1260;108647;-79
2023/03/20 02:00:19;;;;;;;51.50;30.10;;;;;;;4.67;61.00;100076.14;131071;1249;107953;-78
2023/03/20 02:03:26;;;;;;;54.20;31.60;;;;;;;4.61;61.14;100073.79;131138;1251;107439;-79
2023/03/20 02:06:52;;;;;;;56.00;30.50;;;;;;;4.56;61.17;100076.09;131184;1252;108646;-79
2023/03/20 02:10:18;;;;;;;53.80;30.10;;;;;;;4.52;61.27;100076.19;131375;1248;107868;-78
2023/03/20 02:13:31;;;;;;;52.50;30.80;;;;;;;4.47;61.20;100073.75;131446;1261;107462;-78
2023/03/20 02:16:37;;;;;;;50.00;30.80;;;;;;;4.44;61.23;100075.23;131120;1248;107567;-78
2023/03/20 02:20:13;;;;;;;55.60;30.90;;;;;;;4.40;61.28;100074.19;131309;1255;108590;-78
2023/03/20 02:23:47;;;;;;;52.90;30.20;;;;;;;4.35;61.51;100071.54;131220;1254;107370;-79
2023/03/20 02:27:05;;;;;;;51.20;29.60;;;;;;;4.32;61.30;100069.97;131253;1263;107494;-78
2023/03/20 02:30:45;;;;;;;52.30;30.50;;;;;;;4.27;61.52;100070.39;131225;1248;107534;-78
2023/03/20 02:34:18;;;;;;;50.50;29.30;;;;;;;4.22;61.48;100069.73;131170;1248;107186;-79
2023/03/20 02:37:48;;;;;;;51.60;28.50;;;;;;;4.19;61.60;100066.95;131249;1251;107522;-79
2023/03/20 02:41:02;;;;;;;48.80;27.70;;;;;;;4.16;61.54;100066.80;131080;1253;107571;-77
2023/03/20 02:44:13;;;;;;;51.40;29.10;;;;;;;4.11;61.57;100065.60;131050;1251;107523;-78
2023/03/20 02:47:26;;;;;;;52.80;29.70;;;;;;;4.08;61.64;100064.48;131282;1263;107525;-79
2023/03/20 02:50:40;;;;;;;53.30;30.30;;;;;;;4.05;61.71;100062.36;131205;1254;107467;-78
2023/03/20 02:53:55;;;;;;;48.00;28.00;;;;;;;4.02;61.74;100062.93;131159;1254;107453;-78
2023/03/20 02:57:05;;;;;;;50.10;28.10;;;;;;;3.99;61.68;100063.41;131211;1254;108682;-79
2023/03/20 03:00:17;;;;;;;51.20;29.80;;;;;;;3.95;61.81;100062.43;131218;1253;107511;-78
2023/03/20 03:03:27;;;;;;;50.00;28.30;;;;;;;3.92;61.97;100063.36;131264;1248;107643;-78
2023/03/20 03:06:36;;;;;;;51.00;28.60;;;;;;;3.88;61.88;100064.16;131057;1251;107491;-80
2023/03/20 03:09:46;;;;;;;52.40;28.50;;;;;;;3.85;61.88;100063.71;131185;1255;107572;-79
2023/03/20 03:12:54;;;;;;;48.50;28.40;;;;;;;3.82;61.84;100065.14;131049;1254;108000;-79
2023/03/20 03:16:05;;;;;;;51.40;28.10;;;;;;;3.81;62.04;100059.03;131164;1265;107312;-80
2023/03/20 03:19:17;;;;;;;49.90;28.80;;;;;;;3.80;62.15;100060.42;131175;1255;108668;-79
2023/03/20 03:22:23;;;;;;;52.00;28.50;;;;;;;3.78;62.15;100055.61;131315;1252;107507;-79
2023/03/20 03:25:34;;;;;;;52.80;29.00;;;;;;;3.73;62.30;100052.81;131240;1254;107408;-79
2023/03/20 03:28:43;;;;;;;50.70;29.10;;;;;;;3.71;62.23;100050.29;131086;1254;107563;-79
2023/03/20 03:31:50;;;;;;;53.20;29.80;;;;;;;3.69;62.25;100047.98;131266;1252;108703;-78
2023/03/20 03:34:57;;;;;;;49.70;29.00;;;;;;;3.66;62.42;100047.85;131150;1248;107232;-78
2023/03/20 03:38:13;;;;;;;48.70;28.40;;;;;;;3.65;62.39;100043.05;131328;1257;105684;-78
2023/03/20 03:41:26;;;;;;;49.10;28.30;;;;;;;3.64;62.57;100046.06;131493;1261;107486;-79
2023/03/20 03:44:40;;;;;;;49.70;26.90;;;;;;;3.63;62.51;100043.33;131027;1254;107460;-80
2023/03/20 03:47:51;;;;;;;46.10;27.30;;;;;;;3.63;62.39;100043.37;131275;1254;107528;-78
2023/03/20 03:51:00;;;;;;;49.20;26.20;;;;;;;3.62;62.42;100036.58;131155;1251;107398;-79
2023/03/20 03:54:11;;;;;;;45.70;25.20;;;;;;;3.62;62.48;100036.88;131343;1253;107149;-77
2023/03/20 03:57:20;;;;;;;49.10;27.10;;;;;;;3.67;62.36;100036.21;133144;1248;106750;-76
2023/03/20 04:00:28;;;;;;;45.80;25.50;;;;;;;3.68;62.53;100031.91;131095;1254;107567;-78
2023/03/20 04:03:37;;;;;;;44.60;25.70;;;;;;;3.69;62.44;100026.19;131234;1257;107403;-77
2023/03/20 04:06:43;;;;;;;46.30;26.80;;;;;;;3.69;62.45;100030.75;131218;1254;108677;-78
2023/03/20 04:09:49;;;;;;;46.60;26.30;;;;;;;3.65;62.44;100032.32;131128;1260;109095;-78
2023/03/20 04:12:54;;;;;;;45.00;27.00;;;;;;;3.60;62.41;100032.34;131344;1253;107224;-76
2023/03/20 04:16:00;;;;;;;46.80;27.60;;;;;;;3.58;62.48;100033.20;131245;1254;107434;-78
2023/03/20 04:19:06;;;;;;;46.50;26.70;;;;;;;3.58;62.49;100030.20;131219;1250;107532;-79
2023/03/20 04:22:12;;;;;;;49.90;28.30;;;;;;;3.55;62.64;100029.35;130999;1254;107570;-79
2023/03/20 04:25:22;;;;;;;46.00;28.00;;;;;;;3.52;62.66;100031.49;131122;1253;107512;-78
2023/03/20 04:28:30;;;;;;;47.20;26.30;;;;;;;3.47;62.63;100033.92;131269;1253;107524;-79
2023/03/20 04:32:12;;;;;;;47.30;26.30;;;;;;;3.45;62.70;100033.07;130634;1258;107565;-78
2023/03/20 04:35:33;;;;;;;50.10;26.60;;;;;;;3.43;62.63;100033.95;131013;1254;107572;-78
2023/03/20 04:38:43;;;;;;;47.60;26.70;;;;;;;3.40;62.80;100034.63;131036;1253;108638;-79
2023/03/20 04:41:49;;;;;;;49.50;27.70;;;;;;;3.39;62.83;100034.77;130948;1251;107519;-78
2023/03/20 04:44:55;;;;;;;49.20;27.70;;;;;;;3.36;62.83;100037.78;131060;1253;107565;-78
2023/03/20 04:48:02;;;;;;;48.10;27.00;;;;;;;3.35;62.89;100036.43;131125;1256;107563;-78
2023/03/20 04:51:09;;;;;;;48.10;27.70;;;;;;;3.36;62.95;100037.04;131352;1253;108703;-77
2023/03/20 04:54:23;;;;;;;45.50;26.70;;;;;;;3.38;62.81;100035.51;131149;1251;107383;-78
2023/03/20 04:57:30;;;;;;;45.70;26.30;;;;;;;3.41;63.08;100039.16;131319;1253;107673;-77
2023/03/20 05:00:37;;;;;;;43.60;26.30;;;;;;;3.39;63.15;100043.88;131313;1254;107393;-78
2023/03/20 05:03:42;;;;;;;50.90;28.70;;;;;;;3.43;63.18;100044.80;131158;1251;107530;-78
2023/03/20 05:06:48;;;;;;;52.30;29.90;;;;;;;3.51;63.34;100045.45;131182;1253;107322;-76
2023/03/20 05:09:55;;;;;;;46.50;28.10;;;;;;;3.60;63.40;100045.67;131379;1255;108671;-76
2023/03/20 05:13:02;;;;;;;51.50;29.80;;;;;;;3.68;63.61;100043.31;131351;1254;107543;-78
2023/03/20 05:16:27;;;;;;;62.60;34.40;;;;;;;3.75;63.59;100053.90;131241;1253;107417;-77
2023/03/20 05:19:43;;;;;;;67.60;35.80;;;;;;;3.81;63.75;100053.63;131316;1252;107413;-78
2023/03/20 05:23:07;;;;;;;93.40;44.10;;;;;;;3.93;63.77;100051.13;131292;1254;108979;-78
2023/03/20 05:26:27;;;;;;;105.10;50.20;;;;;;;4.09;64.02;100050.99;131218;1261;107538;-78
2023/03/20 05:29:57;;;;;;;106.50;53.30;;;;;;;4.25;64.22;100046.93;131211;1253;107505;-78
2023/03/20 05:33:21;;;;;;;79.60;43.70;;;;;;;4.46;64.11;100046.77;131490;1249;105613;-78
2023/03/20 05:36:45;;;;;;;64.10;34.50;;;;;;;4.63;64.17;100048.95;131374;1253;107479;-75
2023/03/20 05:40:03;;;;;;;63.40;33.70;;;;;;;4.82;64.34;100046.58;131377;1251;107517;-75
2023/03/20 05:43:12;;;;;;;52.90;30.50;;;;;;;4.97;64.34;100048.41;131375;1252;108647;-79
2023/03/20 05:46:29;;;;;;;64.20;35.20;;;;;;;5.10;64.37;100048.94;131241;1254;106520;-79
2023/03/20 05:50:06;;;;;;;70.50;37.80;;;;;;;5.22;64.58;100048.92;130933;1259;107491;-76
2023/03/20 05:53:34;;;;;;;72.40;39.40;;;;;;;5.35;64.61;100053.95;131248;1252;107671;-78
2023/03/20 05:57:00;;;;;;;74.90;40.40;;;;;;;5.48;64.73;100054.02;131202;1253;107391;-77
2023/03/20 06:00:15;;;;;;;73.50;39.60;;;;;;;5.60;64.65;100056.04;131417;1248;107523;-78
2023/03/20 06:03:29;;;;;;;74.60;41.00;;;;;;;5.73;65.16;100059.35;131357;1251;107527;-78
2023/03/20 06:06:40;;;;;;;74.00;41.00;;;;;;;5.87;65.14;100057.68;131219;1254;107459;-79
2023/03/20 06:09:46;;;;;;;68.00;39.60;;;;;;;6.01;65.05;100058.32;131200;1252;107439;-78
2023/03/20 06:12:54;;;;;;;66.20;37.80;;;;;;;6.15;65.19;100058.73;131191;1254;108643;-77
2023/03/20 06:16:03;;;;;;;69.90;40.60;;;;;;;6.30;65.37;100060.27;131375;1247;107511;-78
2023/03/20 06:19:10;;;;;;;65.80;38.60;;;;;;;6.45;65.38;100064.29;131300;1253;107508;-79
2023/03/20 06:22:16;;;;;;;58.40;36.50;;;;;;;6.61;65.35;100067.73;131204;1254;107417;-78
2023/03/20 06:25:22;;;;;;;61.80;36.80;;;;;;;6.75;65.49;100068.11;131081;1253;107520;-79
2023/03/20 06:28:28;;;;;;;59.30;33.80;;;;;;;6.90;65.80;100068.52;131026;1248;109253;-79
2023/03/20 06:31:40;;;;;;;57.40;32.80;;;;;;;7.07;65.65;100067.05;131238;1248;107630;-78
2023/03/20 06:34:49;;;;;;;48.70;30.30;;;;;;;7.28;65.51;100068.05;131431;1255;106592;-78
2023/03/20 06:37:54;;;;;;;51.90;33.40;;;;;;;7.51;65.65;100067.44;131235;1253;107534;-78
2023/03/20 06:41:02;;;;;;;53.40;33.40;;;;;;;7.74;65.66;100069.74;131346;1253;106541;-78
2023/03/20 06:44:08;;;;;;;52.20;33.00;;;;;;;7.95;65.83;100070.04;131125;1253;107527;-75
2023/03/20 06:47:40;;;;;;;65.00;39.90;;;;;;;8.16;65.68;100072.69;131088;1252;107553;-75
2023/03/20 06:50:47;;;;;;;99.20;64.40;;;;;;;8.33;65.55;100069.33;131265;1253;107564;-74
2023/03/20 06:53:54;;;;;;;90.00;57.10;;;;;;;8.48;65.45;100068.09;131263;1254;107627;-76
2023/03/20 06:57:05;;;;;;;74.90;47.50;;;;;;;8.63;65.08;100065.65;131189;1253;106494;-76
2023/03/20 07:00:13;;;;;;;64.00;41.90;;;;;;;8.79;65.30;100065.95;131168;1254;107516;-75
2023/03/20 07:03:19;;;;;;;59.70;37.50;;;;;;;8.93;65.05;100065.64;131260;1253;107549;-75
2023/03/20 07:06:26;;;;;;;80.20;53.90;;;;;;;9.06;64.80;100063.03;131209;1253;107937;-75
2023/03/20 07:09:32;;;;;;;54.40;35.30;;;;;;;9.18;64.53;100063.21;131068;1254;107575;-75
2023/03/20 07:12:37;;;;;;;49.60;35.50;;;;;;;9.31;64.50;100063.05;131251;1253;106679;-75
2023/03/20 07:15:44;;;;;;;101.30;64.30;;;;;;;9.47;64.40;100061.55;131117;1253;107473;-75
2023/03/20 07:18:50;;;;;;;166.20;98.60;;;;;;;9.62;64.53;100062.14;131239;1250;107536;-75
2023/03/20 07:22:01;;;;;;;294.00;181.60;;;;;;;9.81;64.00;100065.05;131108;1254;107521;-75
2023/03/20 07:25:11;;;;;;;186.60;113.30;;;;;;;10.03;63.80;100066.27;131133;1262;106472;-75
2023/03/20 07:28:16;;;;;;;191.10;115.40;;;;;;;10.26;63.63;100065.75;131211;1247;107533;-75
2023/03/20 07:31:29;;;;;;;145.10;91.50;;;;;;;10.45;63.36;100061.30;131301;1254;106510;-75
2023/03/20 07:35:03;;;;;;;142.90;90.80;;;;;;;10.61;63.38;100064.98;131257;1251;108644;-75
2023/03/20 07:38:09;;;;;;;56.00;36.10;;;;;;;10.73;62.99;100066.33;131037;1254;107562;-75
2023/03/20 07:41:23;;;;;;;162.60;99.10;;;;;;;10.82;63.09;100066.27;131225;1254;107523;-75
2023/03/20 07:44:38;;;;;;;51.60;32.90;;;;;;;10.93;62.41;100062.09;131433;1253;107478;-75
2023/03/20 07:47:48;;;;;;;377.90;190.60;;;;;;;11.05;62.48;100065.34;131376;1251;107450;-76
2023/03/20 07:50:53;;;;;;;190.70;99.00;;;;;;;11.17;62.22;100063.99;131379;1251;107436;-76
2023/03/20 07:53:59;;;;;;;197.40;110.00;;;;;;;11.28;61.99;100058.02;131389;1247;107517;-75
2023/03/20 07:57:05;;;;;;;66.30;38.10;;;;;;;11.43;61.65;100060.95;131275;1254;107529;-76
2023/03/20 08:00:14;;;;;;;134.30;88.80;;;;;;;11.58;61.54;100060.55;131361;1251;106363;-76
2023/03/20 08:03:19;;;;;;;89.50;56.00;;;;;;;11.78;61.49;100057.41;131423;1251;107507;-76
2023/03/20 08:06:25;;;;;;;47.70;33.50;;;;;;;11.94;61.44;100061.60;131212;1253;107227;-76
2023/03/20 08:09:30;;;;;;;30.90;21.40;;;;;;;12.06;60.87;100060.45;131219;1254;107404;-76
2023/03/20 08:12:36;;;;;;;30.20;20.30;;;;;;;12.16;60.84;100063.46;131317;1253;107410;-76
2023/03/20 08:15:41;;;;;;;29.10;20.10;;;;;;;12.29;60.40;100065.92;131285;1253;107192;-75
2023/03/20 08:18:49;;;;;;;31.30;24.70;;;;;;;12.40;59.49;100061.73;131401;1253;106771;-75
2023/03/20 08:21:55;;;;;;;49.00;37.70;;;;;;;12.48;58.53;100064.86;131333;1253;107432;-78
2023/03/20 08:25:00;;;;;;;33.70;22.80;;;;;;;12.52;57.95;100063.63;131407;1253;107519;-76
2023/03/20 08:28:06;;;;;;;31.60;21.90;;;;;;;12.54;58.23;100065.68;131332;1248;108634;-76
2023/03/20 08:31:11;;;;;;;40.40;29.10;;;;;;;12.59;57.77;100068.55;131173;1251;107242;-76
2023/03/20 08:34:17;;;;;;;32.50;23.00;;;;;;;12.64;58.09;100069.05;131352;1253;107531;-76
2023/03/20 08:37:23;;;;;;;34.60;24.10;;;;;;;12.70;58.08;100070.36;131223;1248;106954;-75
2023/03/20 08:40:29;;;;;;;33.70;22.70;;;;;;;12.77;58.26;100077.91;131084;1253;108592;-75
2023/03/20 08:43:35;;;;;;;33.40;22.70;;;;;;;12.78;57.32;100077.27;131234;1251;108457;-76
2023/03/20 08:46:42;;;;;;;34.20;23.30;;;;;;;12.79;57.46;100078.48;131211;1248;107371;-76
2023/03/20 08:49:48;;;;;;;33.60;22.30;;;;;;;12.84;57.85;100079.73;131172;1251;107214;-76
2023/03/20 08:52:53;;;;;;;32.10;23.20;;;;;;;12.88;57.99;100079.75;131246;1248;107553;-76
2023/03/20 08:56:00;;;;;;;34.20;23.20;;;;;;;12.87;57.17;100077.72;131227;1253;107406;-76
2023/03/20 08:59:06;;;;;;;34.10;23.40;;;;;;;12.81;56.92;100078.57;131244;1253;107400;-75
2023/03/20 09:02:13;;;;;;;33.60;23.60;;;;;;;12.76;57.11;100077.11;131189;1248;109268;-76
2023/03/20 09:05:18;;;;;;;35.10;23.30;;;;;;;12.75;57.14;100077.77;131268;1253;107506;-76
2023/03/20 09:08:24;;;;;;;33.60;23.80;;;;;;;12.82;56.61;100077.77;131182;1253;107602;-75
2023/03/20 09:11:30;;;;;;;35.10;22.80;;;;;;;12.79;55.73;100082.20;131221;1253;107421;-74
2023/03/20 09:14:37;;;;;;;34.50;24.70;;;;;;;12.81;56.84;100082.31;131223;1251;107542;-75
2023/03/20 09:17:42;;;;;;;33.20;23.50;;;;;;;12.82;56.18;100085.06;131151;1251;107388;-75
2023/03/20 09:20:49;;;;;;;34.00;23.00;;;;;;;12.77;55.88;100089.15;131300;1250;107577;-74
2023/03/20 09:23:54;;;;;;;34.60;23.50;;;;;;;12.78;56.55;100086.04;131125;1253;108597;-75
2023/03/20 09:27:00;;;;;;;34.80;23.80;;;;;;;12.84;56.18;100083.77;131267;1253;107181;-75
2023/03/20 09:30:08;;;;;;;36.00;23.60;;;;;;;12.85;54.98;100083.23;131189;1253;107432;-75
2023/03/20 09:33:14;;;;;;;33.70;23.40;;;;;;;12.87;54.92;100088.83;131273;1253;107437;-75
2023/03/20 09:36:20;;;;;;;35.70;22.40;;;;;;;12.95;56.56;100085.92;131213;1251;108661;-75
2023/03/20 09:39:26;;;;;;;31.50;21.20;;;;;;;13.11;54.68;100090.55;131237;1253;107600;-75
2023/03/20 09:42:46;;;;;;;30.90;21.20;;;;;;;13.15;54.46;100092.27;131340;1253;106530;-75
2023/03/20 09:46:00;;;;;;;36.20;21.50;;;;;;;13.17;54.57;100087.88;131187;1253;107285;-75
2023/03/20 09:49:16;;;;;;;30.40;21.30;;;;;;;13.30;55.19;100089.48;131347;1252;107558;-75
2023/03/20 09:52:27;;;;;;;31.40;21.40;;;;;;;13.39;54.29;100092.93;131252;1248;108654;-75
2023/03/20 09:55:35;;;;;;;31.90;21.70;;;;;;;13.48;54.97;100088.48;131312;1254;107356;-75
2023/03/20 09:58:43;;;;;;;31.00;20.70;;;;;;;13.62;55.24;100093.17;131338;1253;107476;-77
2023/03/20 10:01:53;;;;;;;31.10;19.80;;;;;;;13.66;54.19;100097.67;131229;1251;107201;-77
2023/03/20 10:04:59;;;;;;;31.80;20.60;;;;;;;13.61;53.09;100096.50;131355;1253;107498;-77
2023/03/20 10:08:07;;;;;;;31.30;22.20;;;;;;;13.52;52.40;100097.11;131286;1254;107511;-78
2023/03/20 10:11:48;;;;;;;29.80;19.90;;;;;;;13.49;53.23;100095.20;131256;1253;107513;-78
2023/03/20 10:15:03;;;;;;;31.40;20.20;;;;;;;13.61;53.25;100093.61;131387;1248;109257;-78
2023/03/20 10:18:18;;;;;;;31.80;21.00;;;;;;;13.66;52.71;100089.36;131350;1253;107539;-78
2023/03/20 10:21:29;;;;;;;30.10;21.20;;;;;;;13.70;51.59;100093.27;131238;1253;108645;-78
2023/03/20 10:24:40;;;;;;;30.50;21.30;;;;;;;13.74;52.05;100089.69;131215;1253;106762;-78
2023/03/20 10:27:49;;;;;;;31.30;22.00;;;;;;;13.78;51.52;100090.46;131268;1253;107471;-78
2023/03/20 10:31:08;;;;;;;34.10;22.80;;;;;;;13.86;52.80;100086.68;131354;1253;107435;-78
2023/03/20 10:34:26;;;;;;;35.00;24.20;;;;;;;13.97;52.03;100088.20;131366;1253;107210;-79
2023/03/20 10:37:47;;;;;;;33.80;23.00;;;;;;;14.05;52.35;100083.43;131448;1248;107516;-79
2023/03/20 10:40:56;;;;;;;33.50;23.90;;;;;;;14.09;51.64;100082.85;131275;1253;107520;-78
2023/03/20 10:44:02;;;;;;;35.20;23.70;;;;;;;14.06;52.46;100080.77;131181;1253;107334;-78
2023/03/20 10:47:14;;;;;;;32.60;23.50;;;;;;;14.20;53.29;100078.27;131210;1251;107590;-78
2023/03/20 10:50:23;;;;;;;33.40;24.60;;;;;;;14.35;52.17;100078.98;131211;1253;107504;-79
2023/03/20 10:53:36;;;;;;;33.20;24.10;;;;;;;14.35;52.39;100075.59;131238;1253;107509;-79
2023/03/20 10:56:46;;;;;;;31.30;23.60;;;;;;;14.43;52.80;100076.38;131406;1251;107405;-78
2023/03/20 10:59:55;;;;;;;32.40;22.90;;;;;;;14.55;53.04;100078.59;131394;1251;107279;-79
2023/03/20 11:03:01;;;;;;;35.30;25.70;;;;;;;14.66;52.36;100072.55;131413;1251;107413;-80
2023/03/20 11:06:13;;;;;;;33.50;24.40;;;;;;;14.60;51.31;100075.00;131315;1253;107506;-78
2023/03/20 11:09:22;;;;;;;29.50;21.10;;;;;;;14.47;51.07;100076.03;131382;1251;107511;-78
2023/03/20 11:12:34;;;;;;;32.60;22.20;;;;;;;14.48;52.20;100069.73;131417;1253;107492;-78
2023/03/20 11:15:39;;;;;;;27.90;20.80;;;;;;;14.56;52.07;100070.77;131363;1253;107597;-78
2023/03/20 11:18:45;;;;;;;29.60;21.70;;;;;;;14.65;52.48;100066.66;131285;1249;107597;-78
2023/03/20 11:21:55;;;;;;;26.10;19.60;;;;;;;14.72;52.16;100071.70;131186;1248;107255;-79
2023/03/20 11:25:02;;;;;;;22.10;16.70;;;;;;;14.63;52.20;100067.09;131179;1251;107284;-79
2023/03/20 11:28:30;;;;;;;21.50;15.90;;;;;;;14.63;52.47;100068.13;131481;1253;107208;-79
2023/03/20 11:31:39;;;;;;;21.10;15.20;;;;;;;14.65;52.56;100061.66;131287;1253;107649;-79
2023/03/20 11:34:45;;;;;;;19.10;14.10;;;;;;;14.69;52.80;100061.70;131252;1256;107550;-78
2023/03/20 11:37:53;;;;;;;17.50;13.40;;;;;;;14.72;52.61;100061.67;131349;1253;107378;-78
2023/03/20 11:40:58;;;;;;;16.50;14.10;;;;;;;14.73;52.89;100068.01;131290;1253;107558;-79
2023/03/20 11:44:04;;;;;;;17.20;13.10;;;;;;;14.74;52.89;100057.86;131308;1251;108523;-79
2023/03/20 11:47:17;;;;;;;16.70;13.60;;;;;;;14.76;52.54;100055.52;131328;1251;107337;-79
2023/03/20 11:50:33;;;;;;;17.40;14.00;;;;;;;14.75;52.43;100054.53;131435;1251;107515;-78
2023/03/20 11:53:42;;;;;;;17.40;13.90;;;;;;;14.70;52.58;100048.27;131344;1251;107871;-79
2023/03/20 11:56:55;;;;;;;17.80;13.20;;;;;;;14.76;52.76;100042.41;131405;1253;107274;-78
2023/03/20 12:00:05;;;;;;;18.40;14.30;;;;;;;14.83;52.50;100042.81;131281;1251;107190;-79
2023/03/20 12:03:45;;;;;;;17.50;13.20;;;;;;;14.78;52.51;100042.55;131284;1251;107608;-79
2023/03/20 12:06:56;;;;;;;17.00;12.00;;;;;;;14.77;52.14;100043.94;131240;1253;107396;-78
2023/03/20 12:10:06;;;;;;;15.80;13.20;;;;;;;14.66;52.37;100039.99;131266;1251;108649;-78
2023/03/20 12:13:17;;;;;;;15.90;11.70;;;;;;;14.68;52.85;100037.48;131425;1252;107561;-78
2023/03/20 12:16:26;;;;;;;13.50;10.80;;;;;;;14.77;52.93;100033.69;131331;1248;108499;-78
2023/03/20 12:19:34;;;;;;;13.60;10.00;;;;;;;14.89;52.92;100035.30;131375;1253;107526;-78
2023/03/20 12:22:49;;;;;;;12.30;9.80;;;;;;;15.01;53.24;100029.41;131417;1248;107511;-78
2023/03/20 12:26:01;;;;;;;12.50;10.10;;;;;;;15.15;53.30;100029.50;131251;1251;107213;-78
2023/03/20 12:29:12;;;;;;;13.00;9.90;;;;;;;15.25;53.20;100026.59;131385;1253;107623;-78
2023/03/20 12:32:24;;;;;;;15.80;11.30;;;;;;;15.34;53.39;100024.22;131313;1254;107318;-78
2023/03/20 12:35:32;;;;;;;13.00;10.20;;;;;;;15.40;53.33;100024.09;131288;1253;107371;-78
2023/03/20 12:38:37;;;;;;;12.50;9.60;;;;;;;15.43;53.14;100026.84;131308;1253;107104;-78
2023/03/20 12:41:55;;;;;;;11.30;9.10;;;;;;;15.34;53.02;100024.59;131281;1252;107360;-78
2023/03/20 12:45:10;;;;;;;13.60;10.00;;;;;;;15.26;52.86;100024.10;131244;1253;107466;-78
2023/03/20 12:48:32;;;;;;;13.30;10.20;;;;;;;15.20;52.90;100028.86;131237;1253;107621;-79
2023/03/20 12:51:49;;;;;;;13.30;10.60;;;;;;;15.12;53.26;100029.67;131277;1251;107510;-79
2023/03/20 12:55:21;;;;;;;14.30;10.40;;;;;;;15.08;53.36;100029.91;131310;1261;106446;-78
2023/03/20 12:58:40;;;;;;;12.90;10.00;;;;;;;15.01;53.51;100024.91;131229;1253;107602;-79
2023/03/20 13:01:52;;;;;;;14.80;11.70;;;;;;;14.92;53.49;100032.97;131299;1252;108653;-78
2023/03/20 13:05:16;;;;;;;15.60;12.30;;;;;;;14.65;54.16;100032.57;131428;1253;107487;-79
2023/03/20 13:08:43;;;;;;;16.90;12.80;;;;;;;14.38;54.79;100034.79;131359;1253;107433;-78
2023/03/20 13:11:55;;;;;;;17.70;13.20;;;;;;;14.16;55.54;100032.21;131428;1253;107549;-78
2023/03/20 13:15:12;;;;;;;20.30;13.90;;;;;;;14.10;55.62;100029.41;131346;1252;107500;-78
2023/03/20 13:18:24;;;;;;;18.80;13.70;;;;;;;14.09;55.89;100029.95;131370;1253;107536;-78
2023/03/20 13:21:34;;;;;;;19.60;15.10;;;;;;;14.03;56.05;100025.95;131418;1251;107507;-80
2023/03/20 13:24:45;;;;;;;19.70;15.20;;;;;;;14.01;56.17;100024.13;131352;1254;107525;-78
2023/03/20 13:27:59;;;;;;;20.50;15.60;;;;;;;14.02;55.97;100020.77;131182;1252;107475;-78
2023/03/20 13:31:16;;;;;;;21.70;16.20;;;;;;;14.11;56.00;100020.79;131201;1253;107429;-78
2023/03/20 13:34:36;;;;;;;21.10;16.70;;;;;;;14.06;56.20;100021.34;131236;1253;107512;-78
2023/03/20 13:37:44;;;;;;;24.40;17.40;;;;;;;13.94;56.46;100015.33;131367;1252;107385;-78
2023/03/20 13:40:55;;;;;;;25.50;18.50;;;;;;;13.89;57.02;100015.69;131225;1253;107533;-78
2023/03/20 13:44:03;;;;;;;27.60;20.80;;;;;;;13.78;57.45;100013.98;130999;1251;107601;-78
2023/03/20 13:47:15;;;;;;;26.60;19.50;;;;;;;13.62;57.75;100015.66;130994;1253;107406;-78
2023/03/20 13:50:33;;;;;;;23.40;16.40;;;;;;;13.45;57.52;100017.45;131035;1253;107731;-78
2023/03/20 13:53:50;;;;;;;27.50;20.60;;;;;;;13.34;56.82;100014.47;131022;1253;107522;-78
2023/03/20 13:57:07;;;;;;;21.20;16.50;;;;;;;13.35;56.93;100016.08;131265;1253;107754;-78
2023/03/20 14:00:24;;;;;;;21.30;15.60;;;;;;;13.25;57.11;100015.56;131471;1253;107101;-78
2023/03/20 14:03:34;;;;;;;26.10;20.90;;;;;;;13.01;58.06;100017.19;131192;1253;107252;-79
2023/03/20 14:06:51;;;;;;;22.50;16.90;;;;;;;12.90;57.76;100012.61;131209;1254;107519;-79
2023/03/20 14:09:57;;;;;;;18.90;15.20;;;;;;;12.82;57.86;100012.75;131215;1253;107979;-78
2023/03/20 14:13:04;;;;;;;18.90;14.20;;;;;;;12.76;58.36;100015.96;131298;1253;108713;-80